Time;durP1;ratioP1;P1;durP2;ratioP2;P2;SDS_P1;SDS_P2;PMS_P1;PMS_P2;Temp;Humidity;BMP_temperature;BMP_pressure;BME280_temperature;BME280_humidity;BME280_pressure;Samples;Min_cycle;Max_cycle;Signal;HPM_P1;HPM_P2
2022/09/24 00:01:37;;;;;;;9.18;1.58;;;;;;;10.74;75.70;101361.31;5046638;28;20047;-43
2022/09/24 00:04:07;;;;;;;6.57;2.50;;;;;;;10.76;75.72;101359.84;5036552;28;20484;-45
2022/09/24 00:06:39;;;;;;;8.60;2.55;;;;;;;10.79;75.46;101364.72;5054682;28;20162;-43
2022/09/24 00:09:06;;;;;;;6.47;1.60;;;;;;;10.80;75.62;101366.34;5048335;28;20087;-44
2022/09/24 00:11:34;;;;;;;8.10;1.70;;;;;;;10.84;75.77;101361.78;5047918;28;20045;-42
2022/09/24 00:14:01;;;;;;;10.55;1.63;;;;;;;10.86;75.38;101364.19;5048156;28;20346;-46
2022/09/24 00:16:30;;;;;;;8.02;1.73;;;;;;;10.86;75.35;101353.13;5046182;28;20490;-43
2022/09/24 00:18:58;;;;;;;5.68;2.17;;;;;;;10.85;75.30;101357.06;5047544;28;20091;-43
2022/09/24 00:21:30;;;;;;;8.13;2.00;;;;;;;10.85;75.16;101346.78;5043666;28;20053;-48
2022/09/24 00:24:01;;;;;;;4.72;1.50;;;;;;;10.86;75.22;101353.94;5050850;28;20049;-45
2022/09/24 00:29:20;;;;;;;4.85;1.90;;;;;;;10.81;75.04;101356.06;5051580;28;20049;-43
2022/09/24 00:31:48;;;;;;;4.65;1.52;;;;;;;10.77;75.05;101358.72;5055634;28;20048;-46
2022/09/24 00:34:17;;;;;;;5.03;2.83;;;;;;;10.79;75.15;101355.59;5042305;28;20093;-44
2022/09/24 00:36:45;;;;;;;6.25;2.08;;;;;;;10.80;75.25;101368.31;5049601;28;20045;-46
2022/09/24 00:39:13;;;;;;;5.60;1.52;;;;;;;10.80;75.34;101357.22;5040693;28;20442;-49
2022/09/24 00:41:44;;;;;;;7.28;1.55;;;;;;;10.78;75.31;101363.09;5051437;28;20060;-44
2022/09/24 00:44:39;;;;;;;4.80;1.70;;;;;;;10.78;75.42;101363.09;5051473;28;20043;-42
2022/09/24 00:47:30;;;;;;;5.45;1.60;;;;;;;10.79;75.47;101363.91;5050661;28;20041;-44
2022/09/24 00:50:04;;;;;;;10.63;2.38;;;;;;;10.78;75.35;101357.56;5047477;28;20045;-46
2022/09/24 00:52:43;;;;;;;9.85;1.65;;;;;;;10.79;75.28;101355.59;5038492;28;20048;-51
2022/09/24 00:55:11;;;;;;;11.93;2.55;;;;;;;10.82;75.27;101363.25;5039038;28;20041;-43
2022/09/24 00:57:40;;;;;;;8.27;2.15;;;;;;;10.82;75.28;101363.25;5050789;28;20048;-43
2022/09/24 01:00:08;;;;;;;13.60;2.40;;;;;;;10.81;75.23;101367.16;5050736;28;20095;-43
2022/09/24 01:02:38;;;;;;;9.80;2.30;;;;;;;10.78;75.40;101362.28;5046456;28;20561;-43
2022/09/24 01:05:04;;;;;;;10.13;1.90;;;;;;;10.74;75.32;101361.31;5047902;28;20045;-44
2022/09/24 01:07:31;;;;;;;6.45;2.15;;;;;;;10.71;75.47;101361.97;5050970;28;20059;-43
2022/09/24 01:09:58;;;;;;;10.38;2.55;;;;;;;10.65;75.57;101357.75;5032815;28;20041;-42
2022/09/24 01:12:36;;;;;;;10.20;2.10;;;;;;;10.63;75.82;101357.28;5037520;28;20049;-44
2022/09/24 01:15:23;;;;;;;6.05;2.47;;;;;;;10.64;75.75;101361.69;5050663;28;20063;-44
2022/09/24 01:18:11;;;;;;;11.52;3.20;;;;;;;10.65;75.95;101352.22;5032436;28;20041;-46
2022/09/24 01:20:45;;;;;;;6.93;2.00;;;;;;;10.63;75.88;101354.50;5048792;28;20048;-45
2022/09/24 01:23:30;;;;;;;7.60;3.47;;;;;;;10.56;75.92;101349.50;5050035;28;20095;-44
2022/09/24 01:26:31;;;;;;;9.55;2.50;;;;;;;10.52;76.04;101353.25;5043186;28;20071;-44
2022/09/24 01:29:17;;;;;;;10.00;2.90;;;;;;;10.51;76.09;101357.16;5030372;28;20041;-45
2022/09/24 01:31:52;;;;;;;10.18;2.22;;;;;;;10.50;76.30;101361.06;5031180;28;20068;-47
2022/09/24 01:34:25;;;;;;;7.25;2.25;;;;;;;10.51;76.46;101357.16;5029838;28;20044;-42
2022/09/24 01:36:58;;;;;;;10.88;3.17;;;;;;;10.50;76.41;101355.53;5030308;28;21872;-46
2022/09/24 01:39:26;;;;;;;9.57;2.47;;;;;;;10.48;76.46;101353.09;5030853;28;20063;-44
2022/09/24 01:41:53;;;;;;;7.25;2.92;;;;;;;10.48;76.91;101357.81;5030064;28;20053;-50
2022/09/24 01:44:20;;;;;;;8.85;2.03;;;;;;;10.49;76.66;101364.97;5033037;28;20044;-47
2022/09/24 01:46:48;;;;;;;7.28;2.60;;;;;;;10.46;76.84;101371.19;5029874;28;20617;-44
2022/09/24 01:49:16;;;;;;;7.07;2.05;;;;;;;10.50;77.04;101359.13;5030232;28;20852;-43
2022/09/24 01:51:51;;;;;;;7.00;2.33;;;;;;;10.51;76.84;101352.41;5028927;28;20056;-44
2022/09/24 01:54:27;;;;;;;6.72;2.58;;;;;;;10.52;76.95;101353.25;5029842;28;20132;-44
2022/09/24 01:57:06;;;;;;;9.55;2.28;;;;;;;10.50;77.04;101347.22;5014538;28;20051;-46
2022/09/24 01:59:52;;;;;;;7.97;2.72;;;;;;;10.51;77.13;101352.41;5030682;28;20558;-44
2022/09/24 02:02:29;;;;;;;9.30;2.78;;;;;;;10.51;77.27;101343.31;5029820;28;20083;-44
2022/09/24 02:05:25;;;;;;;11.98;3.03;;;;;;;10.51;77.51;101346.88;5029802;28;20045;-47
2022/09/24 02:08:17;;;;;;;11.23;3.35;;;;;;;10.51;77.29;101340.56;4945507;28;20059;-46
2022/09/24 02:10:56;;;;;;;6.93;2.20;;;;;;;10.46;77.62;101349.81;5031762;28;20081;-48
2022/09/24 02:13:27;;;;;;;9.50;2.50;;;;;;;10.50;77.53;101339.75;5023621;28;20041;-49
2022/09/24 02:15:59;;;;;;;31.27;5.77;;;;;;;10.53;77.58;101341.84;5030916;28;20053;-50
2022/09/24 02:18:35;;;;;;;9.13;2.03;;;;;;;10.53;77.66;101333.53;5029034;28;20437;-48
2022/09/24 02:21:06;;;;;;;8.15;2.58;;;;;;;10.56;77.70;101343.16;5029615;28;20033;-43
2022/09/24 02:23:37;;;;;;;9.25;2.88;;;;;;;10.54;77.68;101345.44;5031553;28;20092;-45
2022/09/24 02:26:04;;;;;;;6.45;2.45;;;;;;;10.53;77.87;101341.84;5030739;28;20500;-44
2022/09/24 02:28:33;;;;;;;8.10;2.28;;;;;;;10.53;78.00;101332.72;5030139;28;20079;-44
2022/09/24 02:31:13;;;;;;;5.28;1.77;;;;;;;10.53;78.12;101349.34;5029406;28;20494;-43
2022/09/24 02:36:30;;;;;;;8.50;1.85;;;;;;;10.50;78.20;101342.50;5029126;28;20049;-43
2022/09/24 02:38:58;;;;;;;6.70;1.85;;;;;;;10.48;78.26;101343.97;5029333;28;20041;-50
2022/09/24 02:41:25;;;;;;;12.23;2.60;;;;;;;10.49;78.34;101342.81;5028774;28;20125;-45
2022/09/24 02:43:52;;;;;;;7.28;1.77;;;;;;;10.51;78.44;101346.09;5014086;28;20053;-45
2022/09/24 02:46:19;;;;;;;5.47;1.23;;;;;;;10.57;78.46;101333.69;5028604;28;20045;-48
2022/09/24 02:48:46;;;;;;;7.97;1.65;;;;;;;10.51;78.36;101346.09;5029791;28;20392;-45
2022/09/24 02:51:13;;;;;;;4.45;1.30;;;;;;;10.48;78.53;101338.44;5028940;28;20488;-43
2022/09/24 02:53:40;;;;;;;8.50;1.45;;;;;;;10.48;78.52;101330.97;5016416;28;20072;-44
2022/09/24 02:56:07;;;;;;;5.93;1.15;;;;;;;10.48;78.61;101342.03;5030263;28;20505;-44
2022/09/24 02:58:36;;;;;;;7.15;1.40;;;;;;;10.47;78.72;101337.63;5028225;28;20339;-43
2022/09/24 03:01:04;;;;;;;10.50;1.20;;;;;;;10.43;78.79;101341.38;5066237;22;20103;-44
2022/09/24 03:03:31;;;;;;;8.82;1.88;;;;;;;10.45;78.94;101339.09;4997721;28;20042;-44
2022/09/24 03:05:59;;;;;;;10.65;1.83;;;;;;;10.45;78.87;101339.91;4997777;28;20492;-44
2022/09/24 03:08:26;;;;;;;6.72;1.40;;;;;;;10.44;78.88;101340.22;5000209;28;20294;-44
2022/09/24 03:10:54;;;;;;;3.13;1.20;;;;;;;10.45;78.99;101341.88;5002812;28;20061;-44
2022/09/24 03:13:22;;;;;;;10.15;1.70;;;;;;;10.45;78.95;101337.16;4997722;28;20038;-42
2022/09/24 03:15:49;;;;;;;11.48;1.73;;;;;;;10.43;79.10;101339.44;4998866;28;20494;-45
2022/09/24 03:18:16;;;;;;;7.63;1.73;;;;;;;10.48;79.10;101342.03;4998310;28;20050;-43
2022/09/24 03:20:42;;;;;;;4.72;1.88;;;;;;;10.48;79.05;101335.69;5000107;28;20450;-48
2022/09/24 03:23:09;;;;;;;6.35;1.73;;;;;;;10.43;79.21;101333.09;4978309;28;20827;-42
2022/09/24 03:25:36;;;;;;;5.80;1.70;;;;;;;10.43;79.29;101344.16;4999753;28;20037;-43
2022/09/24 03:28:03;;;;;;;9.65;1.55;;;;;;;10.44;79.25;101334.69;4996431;28;20056;-43
2022/09/24 03:33:15;;;;;;;8.10;1.77;;;;;;;10.42;79.42;101345.28;4997612;28;20057;-44
2022/09/24 03:35:42;;;;;;;6.38;1.30;;;;;;;10.39;79.58;101338.47;4997407;28;20847;-49
2022/09/24 03:38:08;;;;;;;10.35;2.22;;;;;;;10.35;79.73;101343.81;4997952;28;20099;-48
2022/09/24 03:40:35;;;;;;;6.93;1.60;;;;;;;10.33;79.76;101343.34;4998701;28;20054;-43
2022/09/24 03:43:04;;;;;;;7.05;2.28;;;;;;;10.31;79.78;101342.88;4998290;28;20108;-44
2022/09/24 03:45:30;;;;;;;6.95;1.77;;;;;;;10.31;79.87;101353.13;4999178;28;20386;-43
2022/09/24 03:47:57;;;;;;;5.72;1.48;;;;;;;10.30;79.85;101346.78;4998156;28;20077;-44
2022/09/24 03:50:24;;;;;;;4.15;1.02;;;;;;;10.29;80.01;101350.69;4997910;28;20117;-44
2022/09/24 03:52:52;;;;;;;4.75;1.58;;;;;;;10.28;79.94;101343.53;4997577;28;20124;-45
2022/09/24 03:55:19;;;;;;;10.48;1.70;;;;;;;10.25;80.11;101358.03;4996544;28;20523;-44
2022/09/24 03:57:45;;;;;;;5.93;1.17;;;;;;;10.23;80.14;101352.00;5001991;28;20050;-45
2022/09/24 04:00:13;;;;;;;6.35;1.23;;;;;;;10.20;80.24;101349.06;5001049;28;20042;-45
2022/09/24 04:02:39;;;;;;;10.32;1.85;;;;;;;10.20;80.22;101347.13;4986673;28;20056;-45
2022/09/24 04:05:07;;;;;;;8.75;1.52;;;;;;;10.19;80.34;101350.22;4984498;28;20830;-46
2022/09/24 04:07:33;;;;;;;10.50;1.55;;;;;;;10.14;80.35;101359.50;4983684;28;20459;-42
2022/09/24 04:10:00;;;;;;;5.05;1.45;;;;;;;10.10;80.36;101352.97;4983873;28;20057;-45
2022/09/24 04:12:28;;;;;;;6.90;2.17;;;;;;;10.05;80.44;101358.69;4984167;28;20049;-43
2022/09/24 04:14:55;;;;;;;5.88;0.82;;;;;;;10.01;80.58;101365.16;4984129;28;20153;-43
2022/09/24 04:17:22;;;;;;;8.25;1.98;;;;;;;9.94;80.49;101354.59;4983121;28;20042;-46
2022/09/24 04:19:49;;;;;;;4.07;1.10;;;;;;;9.88;80.57;101357.84;4983174;28;20049;-48
2022/09/24 04:22:27;;;;;;;4.35;1.58;;;;;;;9.81;80.69;101366.66;4985781;28;20510;-43
2022/09/24 04:24:57;;;;;;;3.35;1.17;;;;;;;9.74;80.85;101356.06;4985149;28;20412;-48
2022/09/24 04:27:24;;;;;;;10.65;1.55;;;;;;;9.71;80.88;101364.22;4982237;28;21754;-43
2022/09/24 04:29:53;;;;;;;11.45;2.08;;;;;;;9.65;81.22;101351.69;4961099;28;20042;-48
2022/09/24 04:32:21;;;;;;;8.35;2.20;;;;;;;9.62;81.29;101360.63;4984344;28;20038;-43
2022/09/24 04:34:48;;;;;;;4.53;1.70;;;;;;;9.57;81.23;101364.34;4982676;28;20552;-44
2022/09/24 04:37:14;;;;;;;4.68;1.50;;;;;;;9.55;81.37;101374.09;4981910;28;20061;-49
2022/09/24 04:39:41;;;;;;;5.07;1.33;;;;;;;9.52;81.25;101363.69;4984085;28;20407;-44
2022/09/24 04:42:08;;;;;;;5.32;1.88;;;;;;;9.51;81.33;101373.09;4984731;28;20050;-46
2022/09/24 04:44:37;;;;;;;6.03;1.58;;;;;;;9.48;81.61;101368.22;4983405;28;20393;-44
2022/09/24 04:47:06;;;;;;;6.20;1.50;;;;;;;9.45;81.50;101368.91;4982015;28;20914;-50
2022/09/24 04:49:33;;;;;;;8.77;1.25;;;;;;;9.39;81.57;101364.66;4983175;28;20052;-50
2022/09/24 04:52:00;;;;;;;7.75;2.63;;;;;;;9.38;81.74;101363.00;4983013;28;20159;-46
2022/09/24 04:54:28;;;;;;;5.03;1.50;;;;;;;9.34;81.71;101356.50;4982575;28;20061;-45
2022/09/24 04:56:54;;;;;;;4.40;1.75;;;;;;;9.31;81.78;101368.19;4982288;28;20055;-45
2022/09/24 04:59:22;;;;;;;9.48;2.72;;;;;;;9.29;81.93;101371.31;4984412;28;20054;-48
2022/09/24 05:01:49;;;;;;;7.80;2.35;;;;;;;9.28;81.85;101368.84;4993835;28;20065;-49
2022/09/24 05:04:16;;;;;;;7.43;1.73;;;;;;;9.26;81.75;101368.34;5000738;28;20574;-43
2022/09/24 05:06:43;;;;;;;5.38;1.08;;;;;;;9.22;81.78;101378.41;5000264;28;20128;-54
2022/09/24 05:09:10;;;;;;;7.38;1.52;;;;;;;9.22;81.93;101370.13;4999934;28;20057;-48
2022/09/24 05:11:38;;;;;;;4.53;1.95;;;;;;;9.21;81.94;101371.28;4979620;28;20128;-44
2022/09/24 05:14:05;;;;;;;4.40;1.05;;;;;;;9.17;81.99;101371.09;4999902;28;20850;-44
2022/09/24 05:16:31;;;;;;;4.28;1.30;;;;;;;9.14;82.38;101378.06;4999394;28;20056;-43
2022/09/24 05:18:58;;;;;;;4.97;1.05;;;;;;;9.12;82.16;101372.06;5000567;28;20073;-52
2022/09/24 05:21:25;;;;;;;12.55;1.60;;;;;;;9.09;82.21;101367.16;4978994;28;20052;-44
2022/09/24 05:23:53;;;;;;;4.40;1.58;;;;;;;9.07;82.40;101374.97;5000479;28;20042;-48
2022/09/24 05:29:05;;;;;;;5.35;1.17;;;;;;;9.02;82.37;101375.13;5000857;28;20041;-49
2022/09/24 05:31:32;;;;;;;2.90;1.05;;;;;;;9.02;82.46;101372.34;5000547;28;20045;-46
2022/09/24 05:33:59;;;;;;;3.78;1.10;;;;;;;9.04;82.62;101381.13;4999805;28;20064;-48
2022/09/24 05:36:26;;;;;;;8.13;2.03;;;;;;;9.06;82.80;101389.91;5002004;28;20048;-44
2022/09/24 05:38:53;;;;;;;3.72;0.95;;;;;;;9.11;82.89;101388.94;4998190;28;20124;-46
2022/09/24 05:41:20;;;;;;;8.52;1.60;;;;;;;9.16;82.87;101386.03;4980376;28;20470;-44
2022/09/24 05:43:48;;;;;;;7.63;1.90;;;;;;;9.23;82.97;101393.84;4999010;28;20052;-44
2022/09/24 05:46:15;;;;;;;7.03;1.33;;;;;;;9.28;82.86;101393.72;4999573;28;20188;-43
2022/09/24 05:48:42;;;;;;;6.40;1.48;;;;;;;9.32;82.88;101397.47;4998532;28;20131;-51
2022/09/24 05:51:09;;;;;;;5.10;2.10;;;;;;;9.33;82.91;101408.19;5000885;28;20132;-45
2022/09/24 05:53:36;;;;;;;3.45;1.25;;;;;;;9.38;82.94;101408.03;4999686;28;20045;-45
2022/09/24 05:56:03;;;;;;;3.92;1.25;;;;;;;9.43;82.93;101409.84;4998357;28;20046;-44
2022/09/24 05:58:30;;;;;;;4.72;1.20;;;;;;;9.45;82.95;101413.13;5001362;28;20046;-46
2022/09/24 06:01:03;;;;;;;6.65;1.25;;;;;;;9.47;83.01;101424.66;4999317;28;20046;-45
2022/09/24 06:03:30;;;;;;;5.07;1.17;;;;;;;9.47;82.99;101424.66;4999229;28;20052;-44
2022/09/24 06:06:03;;;;;;;5.72;1.20;;;;;;;9.49;83.00;101425.13;5000300;28;20061;-49
2022/09/24 06:08:34;;;;;;;7.80;1.95;;;;;;;9.48;82.89;101434.56;4998670;28;20045;-48
2022/09/24 06:11:05;;;;;;;6.97;1.35;;;;;;;9.45;83.26;101436.00;5001918;28;20045;-45
2022/09/24 06:13:33;;;;;;;6.45;1.30;;;;;;;9.43;83.18;101440.22;5000824;28;20041;-43
2022/09/24 06:16:03;;;;;;;3.95;1.20;;;;;;;9.42;83.23;101442.22;4998413;28;20103;-51
2022/09/24 06:18:32;;;;;;;4.50;1.33;;;;;;;9.42;83.38;101441.38;4997212;28;20502;-45
2022/09/24 06:21:03;;;;;;;6.15;1.52;;;;;;;9.44;83.42;101436.34;4999133;28;20057;-45
2022/09/24 06:23:30;;;;;;;5.55;1.30;;;;;;;9.43;83.25;101443.81;5001558;28;20038;-47
2022/09/24 06:25:57;;;;;;;3.90;0.93;;;;;;;9.44;83.27;101433.59;5002026;28;20155;-49
2022/09/24 06:28:24;;;;;;;6.05;1.38;;;;;;;9.44;83.32;101444.63;4998919;28;20038;-48
2022/09/24 06:30:52;;;;;;;8.65;1.73;;;;;;;9.44;83.44;101456.50;4998927;28;20149;-45
2022/09/24 06:33:19;;;;;;;7.85;1.30;;;;;;;9.46;83.29;101453.41;4985575;28;20057;-44
2022/09/24 06:35:47;;;;;;;6.22;1.23;;;;;;;9.45;83.32;101457.34;4998721;28;20140;-43
2022/09/24 06:38:17;;;;;;;8.10;1.15;;;;;;;9.40;83.33;101454.72;4997558;28;20058;-43
2022/09/24 06:40:45;;;;;;;5.68;1.20;;;;;;;9.38;83.37;101457.78;5000170;28;20492;-43
2022/09/24 06:43:13;;;;;;;5.95;1.80;;;;;;;9.37;83.60;101466.41;5001691;28;20408;-50
2022/09/24 06:45:43;;;;;;;4.88;1.23;;;;;;;9.33;83.62;101459.88;4998715;28;20042;-47
2022/09/24 06:48:12;;;;;;;6.93;1.45;;;;;;;9.30;83.69;101463.28;4997025;28;22259;-45
2022/09/24 06:50:42;;;;;;;8.35;1.52;;;;;;;9.32;83.78;101467.34;4999246;28;20046;-46
2022/09/24 06:53:09;;;;;;;9.40;1.70;;;;;;;9.35;83.95;101471.41;4998242;28;20065;-45
2022/09/24 06:55:38;;;;;;;4.05;0.95;;;;;;;9.36;83.60;101481.34;4998997;28;20049;-49
2022/09/24 06:58:07;;;;;;;6.28;2.22;;;;;;;9.34;83.82;101472.56;4999278;28;20049;-45
2022/09/24 07:00:35;;;;;;;4.75;1.27;;;;;;;9.37;83.82;101475.50;4998646;28;20048;-45
2022/09/24 07:03:04;;;;;;;5.78;1.27;;;;;;;9.35;83.93;101480.53;4977613;28;20064;-46
2022/09/24 07:05:34;;;;;;;8.48;2.17;;;;;;;9.35;83.88;101486.06;4999458;28;20065;-45
2022/09/24 07:08:08;;;;;;;8.15;1.30;;;;;;;9.37;83.79;101488.53;4996986;28;20506;-43
2022/09/24 07:10:36;;;;;;;4.90;1.00;;;;;;;9.36;83.92;101487.69;4997952;28;22213;-42
2022/09/24 07:13:04;;;;;;;3.97;1.25;;;;;;;9.42;84.17;101493.91;4997139;28;20057;-47
2022/09/24 07:15:31;;;;;;;3.85;1.42;;;;;;;9.53;84.22;101492.47;4997411;28;20061;-44
2022/09/24 07:17:57;;;;;;;7.22;2.50;;;;;;;9.65;84.30;101492.66;4996942;28;20475;-48
2022/09/24 07:20:28;;;;;;;7.03;1.80;;;;;;;9.77;84.02;101484.56;4998631;28;20042;-43
2022/09/24 07:22:55;;;;;;;6.75;1.20;;;;;;;9.82;83.99;101489.16;4998388;28;20110;-44
2022/09/24 07:25:22;;;;;;;5.68;1.75;;;;;;;9.90;84.00;101488.34;4999905;28;20403;-42
2022/09/24 07:27:48;;;;;;;6.25;1.45;;;;;;;10.01;83.96;101497.94;4999510;28;20038;-43
2022/09/24 07:30:17;;;;;;;3.97;1.02;;;;;;;10.11;83.89;101494.91;4998012;28;20066;-48
2022/09/24 07:32:44;;;;;;;7.78;1.83;;;;;;;10.21;83.92;101497.38;5005420;28;20049;-43
2022/09/24 07:35:11;;;;;;;10.75;2.47;;;;;;;10.26;83.77;101495.25;5012572;28;20077;-47
2022/09/24 07:37:38;;;;;;;7.85;1.45;;;;;;;10.33;83.73;101501.13;5012085;28;20060;-43
2022/09/24 07:40:05;;;;;;;5.75;1.20;;;;;;;10.36;83.58;101497.69;5010484;28;20399;-42
2022/09/24 07:42:32;;;;;;;11.95;1.60;;;;;;;10.38;83.66;101495.41;5004944;28;20432;-43
2022/09/24 07:44:59;;;;;;;17.92;2.53;;;;;;;10.42;83.55;101489.22;5005925;28;20053;-42
2022/09/24 07:47:26;;;;;;;4.32;1.13;;;;;;;10.44;83.51;101509.09;4993104;28;20046;-43
2022/09/24 07:49:53;;;;;;;7.78;2.95;;;;;;;10.44;83.46;101501.59;5003964;28;20038;-45
2022/09/24 07:52:19;;;;;;;4.65;1.20;;;;;;;10.46;83.53;101493.78;5006641;28;20099;-46
2022/09/24 07:54:46;;;;;;;2.90;1.13;;;;;;;10.51;83.27;101501.13;4993028;28;20058;-44
2022/09/24 07:57:13;;;;;;;6.97;1.55;;;;;;;10.54;83.20;101494.94;4997718;28;20046;-45
2022/09/24 07:59:40;;;;;;;3.75;1.20;;;;;;;10.58;83.21;101499.50;5009713;28;20053;-44
2022/09/24 08:02:15;;;;;;;4.22;1.17;;;;;;;10.68;83.32;101501.09;5008643;28;20061;-42
2022/09/24 08:04:43;;;;;;;5.30;1.00;;;;;;;10.77;83.21;101499.97;5012762;28;20050;-42
2022/09/24 08:07:11;;;;;;;7.43;1.33;;;;;;;10.87;83.09;101504.34;5012956;28;20149;-42
2022/09/24 08:09:38;;;;;;;4.32;0.85;;;;;;;10.89;82.88;101497.31;5011951;28;20077;-43
2022/09/24 08:12:06;;;;;;;6.75;1.42;;;;;;;10.95;82.88;101512.63;5012270;28;20050;-43
2022/09/24 08:14:33;;;;;;;8.57;1.45;;;;;;;11.01;82.83;101516.06;5006361;28;20088;-44
2022/09/24 08:17:01;;;;;;;6.88;1.02;;;;;;;11.04;82.74;101514.59;5016622;28;20103;-43
2022/09/24 08:19:29;;;;;;;4.93;1.58;;;;;;;11.05;82.66;101522.56;5011936;28;20046;-43
2022/09/24 08:21:59;;;;;;;5.18;1.02;;;;;;;11.06;82.53;101518.66;5011254;28;20045;-42
2022/09/24 08:24:30;;;;;;;4.32;1.20;;;;;;;11.05;82.22;101519.78;5011429;28;20064;-49
2022/09/24 08:26:57;;;;;;;10.95;1.33;;;;;;;11.09;82.47;101523.53;5011953;28;20068;-43
2022/09/24 08:29:24;;;;;;;5.88;1.50;;;;;;;11.12;82.28;101528.38;5011633;28;20045;-43
2022/09/24 08:31:51;;;;;;;6.50;1.48;;;;;;;11.15;82.30;101526.91;4994955;28;20056;-44
2022/09/24 08:34:18;;;;;;;2.47;0.80;;;;;;;11.18;82.16;101532.63;5011475;28;20084;-48
2022/09/24 08:36:45;;;;;;;6.57;1.38;;;;;;;11.21;82.15;101534.75;5011302;28;20056;-44
2022/09/24 08:39:12;;;;;;;3.75;0.93;;;;;;;11.28;82.17;101535.03;5012052;28;20050;-43
2022/09/24 08:41:52;;;;;;;10.13;2.03;;;;;;;11.35;82.04;101542.84;5010628;28;20057;-42
2022/09/24 08:47:53;;;;;;;7.10;1.52;;;;;;;11.48;81.94;101541.84;5012098;28;20056;-40
2022/09/24 08:50:25;;;;;;;6.35;1.20;;;;;;;11.51;81.91;101536.44;5004930;28;20042;-44
2022/09/24 08:53:12;;;;;;;4.30;1.30;;;;;;;11.62;81.78;101537.69;5012004;28;20050;-43
2022/09/24 08:55:44;;;;;;;4.05;1.25;;;;;;;11.71;81.41;101540.47;5011709;28;20038;-47
2022/09/24 08:58:45;;;;;;;7.20;1.23;;;;;;;11.83;81.56;101546.13;4984764;28;20515;-46
2022/09/24 09:01:15;;;;;;;3.95;0.85;;;;;;;11.91;81.50;101550.81;4999959;28;20529;-43
2022/09/24 09:04:11;;;;;;;4.82;1.20;;;;;;;11.99;81.34;101551.91;5009732;28;20081;-43
2022/09/24 09:07:03;;;;;;;8.43;1.33;;;;;;;12.09;81.13;101549.56;5010021;28;20136;-43
2022/09/24 09:09:45;;;;;;;14.77;3.78;;;;;;;12.16;81.35;101551.78;4998539;28;20413;-46
2022/09/24 09:12:29;;;;;;;4.65;1.25;;;;;;;12.25;81.18;101558.13;5011381;28;20496;-44
2022/09/24 09:15:20;;;;;;;3.00;0.98;;;;;;;12.41;81.20;101550.00;5011132;28;20048;-42
2022/09/24 09:17:57;;;;;;;7.93;1.15;;;;;;;12.72;80.68;101559.56;5010836;28;20503;-42
2022/09/24 09:20:51;;;;;;;4.20;0.98;;;;;;;13.08;80.40;101549.78;5010390;28;20050;-43
2022/09/24 09:23:20;;;;;;;3.67;1.40;;;;;;;13.94;80.40;101555.13;4997303;28;20064;-48
2022/09/24 09:25:53;;;;;;;5.55;1.42;;;;;;;14.89;78.34;101563.69;5010134;28;20054;-43
2022/09/24 09:28:20;;;;;;;5.82;1.30;;;;;;;15.49;77.51;101564.56;5010244;28;20060;-43
2022/09/24 09:30:57;;;;;;;5.15;0.98;;;;;;;15.74;75.67;101560.44;5009166;28;20066;-43
2022/09/24 09:33:39;;;;;;;9.82;1.25;;;;;;;15.99;75.71;101564.63;5009441;28;20050;-46
2022/09/24 09:36:36;;;;;;;5.88;0.90;;;;;;;17.28;73.29;101565.13;5009851;28;20061;-43
2022/09/24 09:39:35;;;;;;;2.50;0.85;;;;;;;18.38;70.26;101565.00;5005504;28;20049;-44
2022/09/24 09:42:17;;;;;;;3.28;0.55;;;;;;;19.19;67.08;101566.13;5009775;28;20045;-44
2022/09/24 09:44:45;;;;;;;4.60;1.10;;;;;;;19.83;64.36;101567.56;5010877;28;20681;-48
2022/09/24 09:47:18;;;;;;;6.22;1.35;;;;;;;20.46;62.06;101577.72;5010013;28;20048;-47
2022/09/24 09:49:47;;;;;;;2.97;0.70;;;;;;;20.28;59.93;101582.44;5008832;28;20068;-44
2022/09/24 09:52:20;;;;;;;3.65;1.42;;;;;;;19.86;60.19;101582.84;5010565;28;20514;-45
2022/09/24 09:54:47;;;;;;;2.58;0.88;;;;;;;19.58;58.99;101582.59;5010147;28;20049;-45
2022/09/24 09:57:22;;;;;;;3.85;0.80;;;;;;;19.61;59.76;101588.25;5004190;28;20045;-44
2022/09/24 09:59:52;;;;;;;4.05;1.05;;;;;;;19.62;57.95;101584.22;5004640;28;20045;-45
2022/09/24 10:02:32;;;;;;;2.95;0.85;;;;;;;19.00;57.98;101579.50;5007025;28;20459;-43
2022/09/24 10:05:04;;;;;;;2.28;0.60;;;;;;;18.14;58.74;101582.25;5008503;28;20074;-44
2022/09/24 10:07:42;;;;;;;3.70;0.60;;;;;;;17.49;59.16;101573.91;5008330;28;20049;-44
2022/09/24 10:10:17;;;;;;;2.10;1.15;;;;;;;17.54;59.29;101573.63;5008849;28;20385;-42
2022/09/24 10:12:44;;;;;;;1.88;0.90;;;;;;;17.65;58.29;101582.22;5000068;28;20058;-42
2022/09/24 10:15:23;;;;;;;2.88;0.70;;;;;;;17.12;58.61;101581.19;4997864;28;20050;-43
2022/09/24 10:17:54;;;;;;;2.53;0.63;;;;;;;16.59;58.96;101574.47;5003564;28;20045;-46
2022/09/24 10:20:27;;;;;;;2.83;0.50;;;;;;;16.28;59.15;101580.13;5002776;28;20095;-46
2022/09/24 10:23:01;;;;;;;1.95;0.50;;;;;;;15.99;59.74;101581.41;5002642;28;20444;-42
2022/09/24 10:25:30;;;;;;;3.38;0.70;;;;;;;15.69;60.51;101581.06;5005967;28;20057;-42
2022/09/24 10:31:29;;;;;;;5.38;0.80;;;;;;;15.46;61.09;101593.19;5005681;28;20062;-43
2022/09/24 10:34:01;;;;;;;0.70;0.50;;;;;;;15.16;61.66;101589.94;5002679;28;20080;-42
2022/09/24 10:36:33;;;;;;;1.00;0.40;;;;;;;14.98;61.87;101589.44;5007342;28;20419;-41
2022/09/24 10:39:21;;;;;;;3.30;0.52;;;;;;;14.94;62.07;101593.28;5003054;28;20495;-47
2022/09/24 10:41:51;;;;;;;3.83;0.75;;;;;;;14.98;62.50;101595.03;5004951;28;20057;-42
2022/09/24 10:44:20;;;;;;;4.43;0.75;;;;;;;15.23;62.63;101604.91;4996193;28;20039;-42
2022/09/24 10:46:56;;;;;;;5.65;1.23;;;;;;;15.74;61.11;101600.34;4996593;28;20046;-45
2022/09/24 10:49:37;;;;;;;2.65;0.82;;;;;;;15.73;60.63;101598.72;4994715;28;20046;-48
2022/09/24 10:52:28;;;;;;;3.03;0.50;;;;;;;15.30;60.96;101606.28;5003976;28;20049;-42
2022/09/24 10:55:01;;;;;;;4.40;0.55;;;;;;;14.76;61.77;101598.34;5002299;28;20078;-42
2022/09/24 10:57:44;;;;;;;3.05;1.10;;;;;;;15.05;61.72;101602.75;4995665;28;20049;-41
2022/09/24 11:00:21;;;;;;;4.32;1.77;;;;;;;15.83;60.12;101608.53;4999195;28;20117;-47
2022/09/24 11:02:59;;;;;;;3.28;0.50;;;;;;;16.36;59.28;101596.66;5004354;28;20089;-43
2022/09/24 11:05:44;;;;;;;1.80;1.15;;;;;;;16.59;59.42;101607.22;5000310;28;20077;-43
2022/09/24 11:08:31;;;;;;;7.75;1.45;;;;;;;16.40;59.91;101605.16;5002059;28;20053;-46
2022/09/24 11:11:14;;;;;;;2.65;0.57;;;;;;;16.08;60.47;101609.97;5001122;28;20120;-44
2022/09/24 11:13:50;;;;;;;4.35;0.77;;;;;;;15.69;61.17;101597.00;5003326;28;20159;-43
2022/09/24 11:16:26;;;;;;;3.20;0.60;;;;;;;15.26;61.40;101608.94;4994820;28;20832;-43
2022/09/24 11:18:53;;;;;;;4.80;0.75;;;;;;;14.82;61.86;101607.25;4997470;28;20056;-51
2022/09/24 11:21:27;;;;;;;4.22;0.57;;;;;;;14.68;62.35;101602.06;4983005;28;20049;-43
2022/09/24 11:24:31;;;;;;;1.35;0.60;;;;;;;14.81;62.82;101605.63;5001434;28;20057;-37
2022/09/24 11:27:03;;;;;;;2.88;1.10;;;;;;;15.03;62.87;101599.53;5001075;28;20546;-44
2022/09/24 11:29:50;;;;;;;3.30;0.60;;;;;;;15.17;62.54;101605.50;5001571;28;20099;-44
2022/09/24 11:32:20;;;;;;;1.45;0.57;;;;;;;15.06;62.49;101607.97;4997249;28;20066;-44
2022/09/24 11:34:53;;;;;;;2.40;0.38;;;;;;;14.87;62.53;101607.00;5004313;28;20053;-46
2022/09/24 11:37:41;;;;;;;3.92;0.60;;;;;;;14.69;62.80;101608.47;5000956;28;20496;-47
2022/09/24 11:40:19;;;;;;;2.78;0.55;;;;;;;14.69;62.75;101612.06;4993898;28;20523;-45
2022/09/24 11:42:55;;;;;;;1.38;0.40;;;;;;;14.76;62.86;101614.25;5002041;28;20053;-45
2022/09/24 11:45:44;;;;;;;2.95;0.55;;;;;;;14.72;62.52;101614.13;5003610;28;20058;-45
2022/09/24 11:48:24;;;;;;;5.28;0.90;;;;;;;14.69;62.84;101620.44;5000340;28;20050;-51
2022/09/24 11:50:54;;;;;;;1.67;1.25;;;;;;;14.72;62.98;101608.56;4997257;28;20054;-43
2022/09/24 11:53:48;;;;;;;1.70;0.88;;;;;;;14.67;62.56;101611.59;5002972;28;20487;-44
2022/09/24 11:56:43;;;;;;;2.20;0.50;;;;;;;14.58;62.55;101613.72;4995051;28;20046;-43
2022/09/24 11:59:22;;;;;;;2.90;1.70;;;;;;;14.49;62.57;101626.94;4999627;28;20038;-45
2022/09/24 12:01:56;;;;;;;2.35;0.50;;;;;;;14.59;62.75;101618.09;4992487;28;20061;-44
2022/09/24 12:04:44;;;;;;;2.35;0.30;;;;;;;14.77;62.64;101613.91;4979843;28;20042;-51
2022/09/24 12:07:19;;;;;;;1.52;0.20;;;;;;;14.86;62.17;101617.34;4963774;28;20051;-48